TimeEDT,TemperatureF,Dew PointF,Humidity,Sea Level PressureIn,VisibilityMPH,Wind Direction,Wind SpeedMPH,Gust SpeedMPH,PrecipitationIn,Events,Conditions,WindDirDegrees,DateUTC
12:13 AM,77.0,60.4,56,29.63,10.0,South,13.8,27.6,N/A,,Scattered Clouds,170,2013-07-23 04:13:00
12:33 AM,77.2,61.7,59,29.65,10.0,SSW,10.4,20.7,N/A,,Clear,200,2013-07-23 04:33:00
12:54 AM,77.0,62.6,61,29.67,10.0,SSW,8.1,-,N/A,,Clear,210,2013-07-23 04:54:00
1:14 AM,75.9,63.3,65,29.67,10.0,SSW,10.4,-,N/A,,Scattered Clouds,200,2013-07-23 05:14:00
1:34 AM,75.0,64.2,69,29.65,10.0,South,10.4,18.4,N/A,,Mostly Cloudy,190,2013-07-23 05:34:00
1:54 AM,72.3,66.0,80,29.67,10.0,West,9.2,26.5,N/A,Rain,Light Rain,280,2013-07-23 05:54:00
2:14 AM,72.5,66.4,81,29.67,10.0,West,12.7,20.7,N/A,,Overcast,270,2013-07-23 06:14:00
2:34 AM,72.1,66.4,82,29.67,10.0,West,8.1,-,N/A,,Overcast,270,2013-07-23 06:34:00
2:54 AM,71.8,66.4,83,29.67,10.0,WNW,9.2,-,N/A,,Overcast,300,2013-07-23 06:54:00
3:14 AM,71.2,64.6,79,29.68,10.0,NW,5.8,-,N/A,,Overcast,310,2013-07-23 07:14:00
3:34 AM,70.3,64.6,82,29.67,10.0,NNW,8.1,-,N/A,,Mostly Cloudy,340,2013-07-23 07:34:00
3:55 AM,70.7,60.8,71,29.67,10.0,North,13.8,17.3,N/A,,Mostly Cloudy,360,2013-07-23 07:55:00
4:15 AM,70.2,60.6,72,29.67,10.0,North,9.2,19.6,N/A,,Mostly Cloudy,360,2013-07-23 08:15:00
4:35 AM,69.4,60.8,74,29.68,10.0,North,8.1,17.3,N/A,,Mostly Cloudy,350,2013-07-23 08:35:00
4:55 AM,68.9,60.8,75,29.69,10.0,NNW,8.1,-,N/A,,Scattered Clouds,340,2013-07-23 08:55:00
5:15 AM,68.9,59.4,72,29.71,10.0,North,5.8,-,N/A,,Mostly Cloudy,350,2013-07-23 09:15:00
5:35 AM,68.4,60.3,75,29.71,10.0,North,10.4,-,N/A,,Overcast,350,2013-07-23 09:35:00
5:55 AM,68.4,58.5,71,29.72,10.0,NNW,6.9,-,N/A,,Overcast,340,2013-07-23 09:55:00
6:15 AM,68.0,57.4,69,29.72,10.0,NNW,8.1,-,N/A,,Overcast,340,2013-07-23 10:15:00
6:36 AM,68.0,57.2,68,29.73,10.0,NNW,4.6,-,N/A,,Overcast,340,2013-07-23 10:36:00
6:56 AM,67.1,56.3,68,29.73,10.0,North,6.9,-,N/A,,Mostly Cloudy,350,2013-07-23 10:56:00
7:16 AM,66.4,55.9,69,29.73,10.0,North,6.9,-,N/A,,Scattered Clouds,360,2013-07-23 11:16:00
7:36 AM,66.6,55.6,68,29.73,10.0,NNW,4.6,-,N/A,,Clear,340,2013-07-23 11:36:00
7:56 AM,67.1,55.4,66,29.73,10.0,North,8.1,-,N/A,,Clear,350,2013-07-23 11:56:00
8:16 AM,67.3,55.6,66,29.74,10.0,NNW,10.4,18.4,N/A,,Scattered Clouds,330,2013-07-23 12:16:00
8:36 AM,67.3,55.4,66,29.74,10.0,North,5.8,18.4,N/A,,Scattered Clouds,350,2013-07-23 12:36:00
8:56 AM,67.6,54.9,64,29.75,10.0,North,11.5,18.4,N/A,,Clear,350,2013-07-23 12:56:00
9:16 AM,66.0,54.9,67,29.76,10.0,NNW,10.4,19.6,N/A,,Scattered Clouds,330,2013-07-23 13:16:00
9:31 AM,67.8,54.3,62,29.76,10.0,NNW,13.8,19.6,N/A,,Scattered Clouds,340,2013-07-23 13:31:00
9:52 AM,65.8,53.6,65,29.76,10.0,NNW,8.1,17.3,N/A,,Mostly Cloudy,330,2013-07-23 13:52:00
10:12 AM,67.5,54.5,63,29.77,10.0,North,12.7,17.3,N/A,,Mostly Cloudy,360,2013-07-23 14:12:00
10:32 AM,64.6,54.3,69,29.78,10.0,NNW,12.7,18.4,N/A,,Mostly Cloudy,340,2013-07-23 14:32:00
10:52 AM,65.1,54.3,68,29.80,10.0,NNW,12.7,18.4,N/A,,Overcast,330,2013-07-23 14:52:00
11:12 AM,63.5,53.4,70,29.81,10.0,NNW,12.7,20.7,N/A,,Overcast,330,2013-07-23 15:12:00
11:32 AM,64.2,51.3,63,29.83,10.0,NNW,12.7,21.9,N/A,,Overcast,340,2013-07-23 15:32:00
11:52 AM,64.9,50.9,60,29.84,10.0,NNW,11.5,19.6,N/A,,Overcast,330,2013-07-23 15:52:00
12:12 PM,66.2,50.2,56,29.85,10.0,NNW,15.0,24.2,N/A,,Mostly Cloudy,340,2013-07-23 16:12:00
12:32 PM,66.9,51.1,57,29.85,10.0,North,12.7,19.6,N/A,,Mostly Cloudy,350,2013-07-23 16:32:00
12:53 PM,63.7,50.2,61,29.85,10.0,NNW,11.5,20.7,N/A,,Overcast,340,2013-07-23 16:53:00
1:13 PM,64.0,51.1,63,29.86,10.0,NNW,15.0,21.9,N/A,,Overcast,330,2013-07-23 17:13:00
1:33 PM,63.7,51.1,64,29.86,10.0,NNW,11.5,23.0,N/A,,Overcast,340,2013-07-23 17:33:00
1:53 PM,62.1,51.3,68,29.87,10.0,NNW,13.8,23.0,N/A,,Overcast,330,2013-07-23 17:53:00
2:13 PM,61.9,50.4,66,29.88,10.0,NNW,16.1,23.0,N/A,,Overcast,330,2013-07-23 18:13:00
2:33 PM,64.0,50.5,61,29.89,10.0,NNW,16.1,25.3,N/A,,Overcast,330,2013-07-23 18:33:00
2:53 PM,61.3,48.9,64,29.90,10.0,NNW,15.0,23.0,N/A,,Overcast,330,2013-07-23 18:53:00
3:13 PM,62.1,48.2,60,29.89,10.0,NNW,17.3,27.6,N/A,,Overcast,340,2013-07-23 19:13:00
3:34 PM,61.9,48.2,61,29.90,10.0,North,13.8,19.6,N/A,,Overcast,350,2013-07-23 19:34:00
3:54 PM,61.5,48.7,63,29.90,10.0,NNW,12.7,24.2,N/A,,Overcast,340,2013-07-23 19:54:00
4:14 PM,62.1,48.4,61,29.90,10.0,NNW,10.4,24.2,N/A,,Overcast,340,2013-07-23 20:14:00
4:34 PM,63.5,47.8,57,29.90,10.0,North,11.5,23.0,N/A,,Mostly Cloudy,350,2013-07-23 20:34:00
4:54 PM,62.6,48.0,59,29.91,10.0,North,16.1,21.9,N/A,,Mostly Cloudy,350,2013-07-23 20:54:00
5:14 PM,62.2,47.8,59,29.91,10.0,North,11.5,24.2,N/A,,Overcast,350,2013-07-23 21:14:00
5:34 PM,62.6,48.2,59,29.92,10.0,North,12.7,21.9,N/A,,Overcast,350,2013-07-23 21:34:00
5:54 PM,62.8,47.3,57,29.93,10.0,North,12.7,24.2,N/A,,Mostly Cloudy,360,2013-07-23 21:54:00
6:14 PM,62.2,47.1,58,29.93,10.0,NNW,12.7,24.2,N/A,,Mostly Cloudy,340,2013-07-23 22:14:00
6:34 PM,62.1,47.1,58,29.93,10.0,North,11.5,20.7,N/A,,Scattered Clouds,350,2013-07-23 22:34:00
6:55 PM,63.3,47.7,57,29.93,10.0,North,11.5,19.6,N/A,,Scattered Clouds,350,2013-07-23 22:55:00
7:15 PM,62.4,47.1,57,29.93,10.0,North,10.4,19.6,N/A,,Mostly Cloudy,360,2013-07-23 23:15:00
7:35 PM,61.7,46.9,58,29.93,10.0,North,10.4,17.3,N/A,,Scattered Clouds,10,2013-07-23 23:35:00
7:55 PM,61.5,46.2,57,29.93,10.0,North,10.4,19.6,N/A,,Scattered Clouds,360,2013-07-23 23:55:00
8:15 PM,61.0,45.0,56,29.93,10.0,North,10.4,21.9,N/A,,Clear,360,2013-07-24 00:15:00
8:35 PM,60.8,45.0,56,29.93,10.0,NNW,8.1,18.4,N/A,,Clear,340,2013-07-24 00:35:00
8:55 PM,60.3,43.9,55,29.93,10.0,North,8.1,16.1,N/A,,Clear,350,2013-07-24 00:55:00
9:15 PM,59.9,43.9,55,29.94,10.0,North,8.1,18.4,N/A,,Clear,360,2013-07-24 01:15:00
9:35 PM,60.1,43.3,54,29.94,10.0,NNW,9.2,18.4,N/A,,Clear,340,2013-07-24 01:35:00
9:56 PM,60.1,42.8,53,29.94,10.0,North,6.9,-,N/A,,Clear,360,2013-07-24 01:56:00
10:16 PM,59.9,44.2,56,29.95,10.0,North,5.8,-,N/A,,Clear,350,2013-07-24 02:16:00
10:36 PM,59.7,44.6,57,29.96,10.0,North,8.1,-,N/A,,Clear,360,2013-07-24 02:36:00
10:56 PM,59.9,44.8,57,29.95,10.0,North,9.2,-,N/A,,Clear,360,2013-07-24 02:56:00
11:16 PM,60.1,43.9,55,29.96,10.0,North,6.9,-,N/A,,Clear,360,2013-07-24 03:16:00
11:36 PM,59.9,44.4,57,29.96,10.0,North,8.1,17.3,N/A,,Clear,360,2013-07-24 03:36:00
11:56 PM,60.1,44.4,56,29.97,10.0,North,6.9,-,N/A,,Clear,350,2013-07-24 03:56:00